sensor_id;sensor_type;location;lat;lon;timestamp;P1;durP1;ratioP1;P2;durP2;ratioP2
20441;SDS011;10380;52.102;20.614;2023-02-01T00:01:40;4.70;;;3.67;;
20441;SDS011;10380;52.102;20.614;2023-02-01T00:04:08;8.50;;;5.10;;
20441;SDS011;10380;52.102;20.614;2023-02-01T00:06:35;5.87;;;4.43;;
20441;SDS011;10380;52.102;20.614;2023-02-01T00:09:02;4.50;;;4.10;;
20441;SDS011;10380;52.102;20.614;2023-02-01T00:11:30;5.90;;;4.77;;
20441;SDS011;10380;52.102;20.614;2023-02-01T00:13:57;6.37;;;4.53;;
20441;SDS011;10380;52.102;20.614;2023-02-01T00:16:28;6.73;;;4.53;;
20441;SDS011;10380;52.102;20.614;2023-02-01T00:21:54;6.33;;;5.17;;
20441;SDS011;10380;52.102;20.614;2023-02-01T00:24:20;5.43;;;4.30;;
20441;SDS011;10380;52.102;20.614;2023-02-01T00:26:48;3.70;;;3.03;;
20441;SDS011;10380;52.102;20.614;2023-02-01T00:29:17;4.37;;;3.20;;
20441;SDS011;10380;52.102;20.614;2023-02-01T00:31:51;4.90;;;3.70;;
20441;SDS011;10380;52.102;20.614;2023-02-01T00:34:18;4.50;;;3.70;;
20441;SDS011;10380;52.102;20.614;2023-02-01T00:36:46;4.57;;;3.13;;
20441;SDS011;10380;52.102;20.614;2023-02-01T00:39:14;5.40;;;2.87;;
20441;SDS011;10380;52.102;20.614;2023-02-01T00:41:42;6.90;;;2.97;;
20441;SDS011;10380;52.102;20.614;2023-02-01T00:44:11;5.43;;;3.30;;
20441;SDS011;10380;52.102;20.614;2023-02-01T00:46:38;6.33;;;3.50;;
20441;SDS011;10380;52.102;20.614;2023-02-01T00:49:05;6.07;;;2.97;;
20441;SDS011;10380;52.102;20.614;2023-02-01T00:51:33;4.20;;;2.80;;
20441;SDS011;10380;52.102;20.614;2023-02-01T00:54:02;6.23;;;2.50;;
20441;SDS011;10380;52.102;20.614;2023-02-01T00:56:30;3.93;;;2.60;;
20441;SDS011;10380;52.102;20.614;2023-02-01T00:58:58;3.37;;;2.30;;
20441;SDS011;10380;52.102;20.614;2023-02-01T01:01:26;2.77;;;2.20;;
20441;SDS011;10380;52.102;20.614;2023-02-01T01:03:57;3.87;;;2.63;;
20441;SDS011;10380;52.102;20.614;2023-02-01T01:06:30;3.67;;;2.37;;
20441;SDS011;10380;52.102;20.614;2023-02-01T01:08:59;3.83;;;2.50;;
20441;SDS011;10380;52.102;20.614;2023-02-01T01:11:32;5.43;;;2.50;;
20441;SDS011;10380;52.102;20.614;2023-02-01T01:14:01;5.90;;;1.80;;
20441;SDS011;10380;52.102;20.614;2023-02-01T01:16:33;3.80;;;2.23;;
20441;SDS011;10380;52.102;20.614;2023-02-01T01:19:02;2.13;;;1.40;;
20441;SDS011;10380;52.102;20.614;2023-02-01T01:21:30;6.50;;;2.10;;
20441;SDS011;10380;52.102;20.614;2023-02-01T01:23:57;5.30;;;2.17;;
20441;SDS011;10380;52.102;20.614;2023-02-01T01:26:27;10.63;;;2.87;;
20441;SDS011;10380;52.102;20.614;2023-02-01T01:28:57;6.93;;;2.83;;
20441;SDS011;10380;52.102;20.614;2023-02-01T01:31:29;3.70;;;2.23;;
20441;SDS011;10380;52.102;20.614;2023-02-01T01:33:58;3.57;;;2.33;;
20441;SDS011;10380;52.102;20.614;2023-02-01T01:36:26;4.40;;;2.07;;
20441;SDS011;10380;52.102;20.614;2023-02-01T01:38:53;5.53;;;2.13;;
20441;SDS011;10380;52.102;20.614;2023-02-01T01:41:31;6.97;;;2.73;;
20441;SDS011;10380;52.102;20.614;2023-02-01T01:44:02;5.33;;;2.37;;
20441;SDS011;10380;52.102;20.614;2023-02-01T01:46:33;6.30;;;2.60;;
20441;SDS011;10380;52.102;20.614;2023-02-01T01:49:12;7.30;;;2.47;;
20441;SDS011;10380;52.102;20.614;2023-02-01T01:51:57;3.07;;;1.70;;
20441;SDS011;10380;52.102;20.614;2023-02-01T01:59:57;2.77;;;1.57;;
20441;SDS011;10380;52.102;20.614;2023-02-01T02:02:29;5.67;;;2.30;;
20441;SDS011;10380;52.102;20.614;2023-02-01T02:04:56;3.13;;;1.80;;
20441;SDS011;10380;52.102;20.614;2023-02-01T02:07:30;2.70;;;1.50;;
20441;SDS011;10380;52.102;20.614;2023-02-01T02:10:00;5.03;;;2.37;;
20441;SDS011;10380;52.102;20.614;2023-02-01T02:12:34;6.73;;;2.03;;
20441;SDS011;10380;52.102;20.614;2023-02-01T02:15:04;5.70;;;1.93;;
20441;SDS011;10380;52.102;20.614;2023-02-01T02:17:40;8.97;;;2.30;;
20441;SDS011;10380;52.102;20.614;2023-02-01T02:41:39;6.53;;;2.33;;
20441;SDS011;10380;52.102;20.614;2023-02-01T02:44:54;9.80;;;2.83;;
20441;SDS011;10380;52.102;20.614;2023-02-01T02:48:02;7.50;;;2.17;;
20441;SDS011;10380;52.102;20.614;2023-02-01T02:54:05;7.87;;;1.70;;
20441;SDS011;10380;52.102;20.614;2023-02-01T02:56:58;5.83;;;2.07;;
20441;SDS011;10380;52.102;20.614;2023-02-01T02:59:53;5.43;;;2.07;;
20441;SDS011;10380;52.102;20.614;2023-02-01T03:02:46;12.23;;;2.50;;
20441;SDS011;10380;52.102;20.614;2023-02-01T03:05:33;11.93;;;2.97;;
20441;SDS011;10380;52.102;20.614;2023-02-01T03:10:46;9.07;;;2.63;;
20441;SDS011;10380;52.102;20.614;2023-02-01T03:16:45;6.40;;;1.90;;
20441;SDS011;10380;52.102;20.614;2023-02-01T03:19:39;5.37;;;2.00;;
20441;SDS011;10380;52.102;20.614;2023-02-01T03:22:26;3.50;;;2.30;;
20441;SDS011;10380;52.102;20.614;2023-02-01T03:25:08;15.40;;;2.77;;
20441;SDS011;10380;52.102;20.614;2023-02-01T03:32:56;6.53;;;2.43;;
20441;SDS011;10380;52.102;20.614;2023-02-01T03:47:16;4.80;;;1.70;;
20441;SDS011;10380;52.102;20.614;2023-02-01T03:49:55;8.07;;;2.73;;
20441;SDS011;10380;52.102;20.614;2023-02-01T03:52:37;10.97;;;3.43;;
20441;SDS011;10380;52.102;20.614;2023-02-01T03:57:37;10.17;;;2.70;;
20441;SDS011;10380;52.102;20.614;2023-02-01T04:00:22;11.47;;;2.93;;
20441;SDS011;10380;52.102;20.614;2023-02-01T04:05:32;13.10;;;3.07;;
20441;SDS011;10380;52.102;20.614;2023-02-01T04:10:44;5.77;;;2.60;;
20441;SDS011;10380;52.102;20.614;2023-02-01T04:13:11;8.37;;;2.30;;
20441;SDS011;10380;52.102;20.614;2023-02-01T04:15:42;7.47;;;1.90;;
20441;SDS011;10380;52.102;20.614;2023-02-01T04:20:42;9.33;;;2.10;;
20441;SDS011;10380;52.102;20.614;2023-02-01T04:23:16;8.33;;;2.70;;
20441;SDS011;10380;52.102;20.614;2023-02-01T04:26:01;8.77;;;2.50;;
20441;SDS011;10380;52.102;20.614;2023-02-01T04:28:30;7.00;;;2.53;;
20441;SDS011;10380;52.102;20.614;2023-02-01T04:30:57;11.03;;;3.10;;
20441;SDS011;10380;52.102;20.614;2023-02-01T04:33:28;13.00;;;2.33;;
20441;SDS011;10380;52.102;20.614;2023-02-01T04:35:56;11.00;;;2.50;;
20441;SDS011;10380;52.102;20.614;2023-02-01T04:38:40;7.33;;;2.60;;
20441;SDS011;10380;52.102;20.614;2023-02-01T04:41:08;8.77;;;2.40;;
20441;SDS011;10380;52.102;20.614;2023-02-01T04:46:31;11.90;;;3.10;;
20441;SDS011;10380;52.102;20.614;2023-02-01T04:49:00;5.93;;;2.27;;
20441;SDS011;10380;52.102;20.614;2023-02-01T04:51:27;6.73;;;2.03;;
20441;SDS011;10380;52.102;20.614;2023-02-01T04:53:55;5.43;;;1.73;;
20441;SDS011;10380;52.102;20.614;2023-02-01T04:56:30;10.40;;;3.33;;
20441;SDS011;10380;52.102;20.614;2023-02-01T04:59:00;6.47;;;2.37;;
20441;SDS011;10380;52.102;20.614;2023-02-01T05:01:35;4.40;;;2.07;;
20441;SDS011;10380;52.102;20.614;2023-02-01T05:04:03;10.03;;;2.43;;
20441;SDS011;10380;52.102;20.614;2023-02-01T05:06:30;6.63;;;2.57;;
20441;SDS011;10380;52.102;20.614;2023-02-01T05:08:57;7.80;;;2.23;;
20441;SDS011;10380;52.102;20.614;2023-02-01T05:11:34;9.57;;;2.60;;
20441;SDS011;10380;52.102;20.614;2023-02-01T05:14:19;9.03;;;2.40;;
20441;SDS011;10380;52.102;20.614;2023-02-01T05:16:50;6.83;;;2.00;;
20441;SDS011;10380;52.102;20.614;2023-02-01T05:19:19;6.00;;;1.90;;
20441;SDS011;10380;52.102;20.614;2023-02-01T05:21:46;8.77;;;2.83;;
20441;SDS011;10380;52.102;20.614;2023-02-01T05:24:15;6.63;;;2.33;;
20441;SDS011;10380;52.102;20.614;2023-02-01T05:26:49;11.57;;;2.63;;
20441;SDS011;10380;52.102;20.614;2023-02-01T05:29:17;7.33;;;3.03;;
20441;SDS011;10380;52.102;20.614;2023-02-01T05:31:51;5.33;;;2.10;;
20441;SDS011;10380;52.102;20.614;2023-02-01T05:34:24;6.53;;;1.90;;
20441;SDS011;10380;52.102;20.614;2023-02-01T05:36:51;7.57;;;2.70;;
20441;SDS011;10380;52.102;20.614;2023-02-01T05:39:18;10.60;;;2.40;;
20441;SDS011;10380;52.102;20.614;2023-02-01T05:41:46;7.83;;;1.97;;
20441;SDS011;10380;52.102;20.614;2023-02-01T05:44:14;10.50;;;3.43;;
20441;SDS011;10380;52.102;20.614;2023-02-01T05:46:48;11.27;;;3.33;;
20441;SDS011;10380;52.102;20.614;2023-02-01T05:49:21;10.83;;;2.43;;
20441;SDS011;10380;52.102;20.614;2023-02-01T05:51:49;7.37;;;2.83;;
20441;SDS011;10380;52.102;20.614;2023-02-01T05:54:21;6.60;;;2.30;;
20441;SDS011;10380;52.102;20.614;2023-02-01T05:56:48;8.57;;;2.73;;
20441;SDS011;10380;52.102;20.614;2023-02-01T05:59:21;12.17;;;2.40;;
20441;SDS011;10380;52.102;20.614;2023-02-01T06:01:48;9.60;;;2.63;;
20441;SDS011;10380;52.102;20.614;2023-02-01T06:04:17;6.47;;;2.10;;
20441;SDS011;10380;52.102;20.614;2023-02-01T06:06:44;5.03;;;2.23;;
20441;SDS011;10380;52.102;20.614;2023-02-01T06:11:43;10.27;;;3.67;;
20441;SDS011;10380;52.102;20.614;2023-02-01T06:14:14;11.00;;;2.73;;
20441;SDS011;10380;52.102;20.614;2023-02-01T06:16:41;11.47;;;2.47;;
20441;SDS011;10380;52.102;20.614;2023-02-01T06:19:08;11.83;;;2.47;;
20441;SDS011;10380;52.102;20.614;2023-02-01T06:21:35;12.23;;;2.87;;
20441;SDS011;10380;52.102;20.614;2023-02-01T06:24:02;16.00;;;2.87;;
20441;SDS011;10380;52.102;20.614;2023-02-01T06:26:30;7.33;;;3.40;;
20441;SDS011;10380;52.102;20.614;2023-02-01T06:29:04;13.40;;;3.73;;
20441;SDS011;10380;52.102;20.614;2023-02-01T06:31:33;12.20;;;4.17;;
20441;SDS011;10380;52.102;20.614;2023-02-01T06:34:00;8.03;;;2.47;;
20441;SDS011;10380;52.102;20.614;2023-02-01T06:36:27;6.43;;;2.57;;
20441;SDS011;10380;52.102;20.614;2023-02-01T06:38:57;9.57;;;3.13;;
20441;SDS011;10380;52.102;20.614;2023-02-01T06:41:26;7.10;;;2.40;;
20441;SDS011;10380;52.102;20.614;2023-02-01T06:43:54;7.57;;;3.20;;
20441;SDS011;10380;52.102;20.614;2023-02-01T06:46:21;10.83;;;3.90;;
20441;SDS011;10380;52.102;20.614;2023-02-01T06:48:48;13.90;;;3.53;;
20441;SDS011;10380;52.102;20.614;2023-02-01T06:51:21;15.07;;;3.90;;
20441;SDS011;10380;52.102;20.614;2023-02-01T06:53:50;10.50;;;4.00;;
20441;SDS011;10380;52.102;20.614;2023-02-01T06:56:17;7.80;;;3.30;;
20441;SDS011;10380;52.102;20.614;2023-02-01T06:58:45;19.03;;;4.30;;
20441;SDS011;10380;52.102;20.614;2023-02-01T07:01:13;11.47;;;3.33;;
20441;SDS011;10380;52.102;20.614;2023-02-01T07:03:41;8.60;;;2.90;;
20441;SDS011;10380;52.102;20.614;2023-02-01T07:06:08;11.93;;;3.87;;
20441;SDS011;10380;52.102;20.614;2023-02-01T07:08:37;12.40;;;3.30;;
20441;SDS011;10380;52.102;20.614;2023-02-01T07:11:05;7.50;;;3.57;;
20441;SDS011;10380;52.102;20.614;2023-02-01T07:13:34;11.10;;;3.80;;
20441;SDS011;10380;52.102;20.614;2023-02-01T07:16:01;9.17;;;2.83;;
20441;SDS011;10380;52.102;20.614;2023-02-01T07:18:30;9.57;;;3.10;;
20441;SDS011;10380;52.102;20.614;2023-02-01T07:20:59;9.03;;;2.80;;
20441;SDS011;10380;52.102;20.614;2023-02-01T07:23:26;10.30;;;3.20;;
20441;SDS011;10380;52.102;20.614;2023-02-01T07:26:01;8.97;;;2.73;;
20441;SDS011;10380;52.102;20.614;2023-02-01T07:28:30;9.87;;;3.00;;
20441;SDS011;10380;52.102;20.614;2023-02-01T07:31:02;11.90;;;3.10;;
20441;SDS011;10380;52.102;20.614;2023-02-01T07:33:30;10.57;;;3.40;;
20441;SDS011;10380;52.102;20.614;2023-02-01T07:35:57;10.40;;;3.17;;
20441;SDS011;10380;52.102;20.614;2023-02-01T07:38:28;14.77;;;3.43;;
20441;SDS011;10380;52.102;20.614;2023-02-01T07:40:58;8.17;;;2.73;;
20441;SDS011;10380;52.102;20.614;2023-02-01T07:43:27;8.73;;;3.00;;
20441;SDS011;10380;52.102;20.614;2023-02-01T07:45:55;19.40;;;3.80;;
20441;SDS011;10380;52.102;20.614;2023-02-01T07:48:23;9.87;;;2.90;;
20441;SDS011;10380;52.102;20.614;2023-02-01T07:51:00;15.40;;;2.83;;
20441;SDS011;10380;52.102;20.614;2023-02-01T07:53:30;13.47;;;3.00;;
20441;SDS011;10380;52.102;20.614;2023-02-01T07:55:58;13.13;;;3.47;;
20441;SDS011;10380;52.102;20.614;2023-02-01T07:58:25;11.23;;;3.77;;
20441;SDS011;10380;52.102;20.614;2023-02-01T08:00:53;8.53;;;3.20;;
20441;SDS011;10380;52.102;20.614;2023-02-01T08:03:54;9.13;;;2.27;;
20441;SDS011;10380;52.102;20.614;2023-02-01T08:06:23;15.80;;;3.90;;
20441;SDS011;10380;52.102;20.614;2023-02-01T08:08:51;8.03;;;3.50;;
20441;SDS011;10380;52.102;20.614;2023-02-01T08:11:20;6.73;;;2.60;;
20441;SDS011;10380;52.102;20.614;2023-02-01T08:13:48;9.03;;;2.40;;
20441;SDS011;10380;52.102;20.614;2023-02-01T08:16:18;10.80;;;2.13;;
20441;SDS011;10380;52.102;20.614;2023-02-01T08:18:45;8.13;;;2.70;;
20441;SDS011;10380;52.102;20.614;2023-02-01T08:21:14;9.60;;;3.23;;
20441;SDS011;10380;52.102;20.614;2023-02-01T08:23:43;12.70;;;4.80;;
20441;SDS011;10380;52.102;20.614;2023-02-01T08:26:11;11.67;;;2.67;;
20441;SDS011;10380;52.102;20.614;2023-02-01T08:28:47;10.87;;;2.87;;
20441;SDS011;10380;52.102;20.614;2023-02-01T08:31:17;9.10;;;3.43;;
20441;SDS011;10380;52.102;20.614;2023-02-01T08:33:50;8.87;;;2.83;;
20441;SDS011;10380;52.102;20.614;2023-02-01T08:36:21;8.93;;;3.67;;
20441;SDS011;10380;52.102;20.614;2023-02-01T08:38:50;7.93;;;2.67;;
20441;SDS011;10380;52.102;20.614;2023-02-01T08:41:17;14.07;;;3.30;;
20441;SDS011;10380;52.102;20.614;2023-02-01T08:43:46;7.37;;;2.83;;
20441;SDS011;10380;52.102;20.614;2023-02-01T08:46:14;7.13;;;2.53;;
20441;SDS011;10380;52.102;20.614;2023-02-01T08:48:42;7.63;;;2.87;;
20441;SDS011;10380;52.102;20.614;2023-02-01T08:51:11;6.57;;;3.07;;
20441;SDS011;10380;52.102;20.614;2023-02-01T08:53:39;14.20;;;3.97;;
20441;SDS011;10380;52.102;20.614;2023-02-01T08:56:08;8.57;;;2.60;;
20441;SDS011;10380;52.102;20.614;2023-02-01T08:58:36;7.60;;;2.87;;
20441;SDS011;10380;52.102;20.614;2023-02-01T09:01:07;9.17;;;3.20;;
20441;SDS011;10380;52.102;20.614;2023-02-01T09:03:40;7.40;;;2.37;;
20441;SDS011;10380;52.102;20.614;2023-02-01T09:06:09;10.63;;;2.93;;
20441;SDS011;10380;52.102;20.614;2023-02-01T09:08:38;8.90;;;3.60;;
20441;SDS011;10380;52.102;20.614;2023-02-01T09:11:06;7.47;;;2.90;;
20441;SDS011;10380;52.102;20.614;2023-02-01T09:13:37;8.40;;;2.67;;
20441;SDS011;10380;52.102;20.614;2023-02-01T09:16:04;9.20;;;3.00;;
20441;SDS011;10380;52.102;20.614;2023-02-01T09:18:31;15.33;;;3.47;;
20441;SDS011;10380;52.102;20.614;2023-02-01T09:20:58;9.87;;;3.60;;
20441;SDS011;10380;52.102;20.614;2023-02-01T09:23:25;8.37;;;3.13;;
20441;SDS011;10380;52.102;20.614;2023-02-01T09:25:52;8.90;;;2.43;;
20441;SDS011;10380;52.102;20.614;2023-02-01T09:28:19;9.87;;;2.53;;
20441;SDS011;10380;52.102;20.614;2023-02-01T09:30:46;9.80;;;3.20;;
20441;SDS011;10380;52.102;20.614;2023-02-01T09:33:13;8.97;;;2.90;;
20441;SDS011;10380;52.102;20.614;2023-02-01T09:35:41;5.63;;;2.70;;
20441;SDS011;10380;52.102;20.614;2023-02-01T09:38:08;9.60;;;3.20;;
20441;SDS011;10380;52.102;20.614;2023-02-01T09:40:35;11.63;;;2.77;;
20441;SDS011;10380;52.102;20.614;2023-02-01T09:45:35;12.47;;;3.47;;
20441;SDS011;10380;52.102;20.614;2023-02-01T09:48:16;13.00;;;3.80;;
20441;SDS011;10380;52.102;20.614;2023-02-01T09:50:55;12.53;;;3.60;;
20441;SDS011;10380;52.102;20.614;2023-02-01T09:53:33;8.63;;;3.40;;
20441;SDS011;10380;52.102;20.614;2023-02-01T09:56:05;9.20;;;3.17;;
20441;SDS011;10380;52.102;20.614;2023-02-01T10:01:03;12.27;;;3.10;;
20441;SDS011;10380;52.102;20.614;2023-02-01T10:03:36;11.43;;;3.83;;
20441;SDS011;10380;52.102;20.614;2023-02-01T10:06:20;6.23;;;3.40;;
20441;SDS011;10380;52.102;20.614;2023-02-01T10:14:28;6.63;;;2.80;;
20441;SDS011;10380;52.102;20.614;2023-02-01T10:22:42;14.53;;;3.60;;
20441;SDS011;10380;52.102;20.614;2023-02-01T10:25:44;6.57;;;2.97;;
20441;SDS011;10380;52.102;20.614;2023-02-01T10:28:21;10.00;;;4.33;;
20441;SDS011;10380;52.102;20.614;2023-02-01T10:30:51;11.23;;;3.53;;
20441;SDS011;10380;52.102;20.614;2023-02-01T10:33:24;12.27;;;3.67;;
20441;SDS011;10380;52.102;20.614;2023-02-01T10:36:08;9.70;;;3.23;;
20441;SDS011;10380;52.102;20.614;2023-02-01T10:38:48;12.00;;;3.77;;
20441;SDS011;10380;52.102;20.614;2023-02-01T10:41:27;11.90;;;4.43;;
20441;SDS011;10380;52.102;20.614;2023-02-01T10:43:59;6.50;;;3.50;;
20441;SDS011;10380;52.102;20.614;2023-02-01T10:46:29;10.97;;;2.80;;
20441;SDS011;10380;52.102;20.614;2023-02-01T10:48:58;13.07;;;3.23;;
20441;SDS011;10380;52.102;20.614;2023-02-01T10:51:30;8.63;;;2.50;;
20441;SDS011;10380;52.102;20.614;2023-02-01T10:54:19;11.97;;;3.73;;
20441;SDS011;10380;52.102;20.614;2023-02-01T10:56:48;9.90;;;4.43;;
20441;SDS011;10380;52.102;20.614;2023-02-01T10:59:20;10.80;;;3.57;;
20441;SDS011;10380;52.102;20.614;2023-02-01T11:01:57;9.83;;;4.20;;
20441;SDS011;10380;52.102;20.614;2023-02-01T11:04:26;9.43;;;4.00;;
20441;SDS011;10380;52.102;20.614;2023-02-01T11:09:40;11.67;;;3.87;;
20441;SDS011;10380;52.102;20.614;2023-02-01T11:12:23;10.13;;;3.30;;
20441;SDS011;10380;52.102;20.614;2023-02-01T11:17:44;8.03;;;3.10;;
20441;SDS011;10380;52.102;20.614;2023-02-01T11:20:18;9.73;;;3.40;;
20441;SDS011;10380;52.102;20.614;2023-02-01T11:22:54;11.37;;;3.73;;
20441;SDS011;10380;52.102;20.614;2023-02-01T11:25:22;11.13;;;3.90;;
20441;SDS011;10380;52.102;20.614;2023-02-01T11:27:51;9.03;;;3.47;;
20441;SDS011;10380;52.102;20.614;2023-02-01T11:30:55;11.40;;;3.13;;
20441;SDS011;10380;52.102;20.614;2023-02-01T11:33:15;8.43;;;3.90;;
20441;SDS011;10380;52.102;20.614;2023-02-01T11:35:47;15.43;;;4.03;;
20441;SDS011;10380;52.102;20.614;2023-02-01T11:40:44;12.40;;;4.47;;
20441;SDS011;10380;52.102;20.614;2023-02-01T11:45:59;15.20;;;3.47;;
20441;SDS011;10380;52.102;20.614;2023-02-01T11:48:28;11.03;;;3.90;;
20441;SDS011;10380;52.102;20.614;2023-02-01T11:54:11;18.47;;;4.87;;
20441;SDS011;10380;52.102;20.614;2023-02-01T12:00:18;14.40;;;5.20;;
20441;SDS011;10380;52.102;20.614;2023-02-01T12:10:51;10.83;;;3.97;;
20441;SDS011;10380;52.102;20.614;2023-02-01T12:13:29;11.80;;;3.70;;
20441;SDS011;10380;52.102;20.614;2023-02-01T12:16:32;12.30;;;4.30;;
20441;SDS011;10380;52.102;20.614;2023-02-01T12:52:00;14.60;;;4.67;;
20441;SDS011;10380;52.102;20.614;2023-02-01T12:57:03;17.27;;;5.40;;
20441;SDS011;10380;52.102;20.614;2023-02-01T12:59:40;9.07;;;3.30;;
20441;SDS011;10380;52.102;20.614;2023-02-01T13:02:18;17.53;;;4.40;;
20441;SDS011;10380;52.102;20.614;2023-02-01T13:13:11;8.93;;;4.33;;
20441;SDS011;10380;52.102;20.614;2023-02-01T13:15:42;15.17;;;6.97;;
20441;SDS011;10380;52.102;20.614;2023-02-01T13:18:24;14.30;;;5.33;;
20441;SDS011;10380;52.102;20.614;2023-02-01T13:21:02;9.63;;;4.27;;
20441;SDS011;10380;52.102;20.614;2023-02-01T13:23:50;6.03;;;4.60;;
20441;SDS011;10380;52.102;20.614;2023-02-01T13:26:19;14.17;;;5.13;;
20441;SDS011;10380;52.102;20.614;2023-02-01T13:28:48;13.10;;;6.87;;
20441;SDS011;10380;52.102;20.614;2023-02-01T13:31:38;17.57;;;5.67;;
20441;SDS011;10380;52.102;20.614;2023-02-01T13:34:39;8.07;;;4.60;;
20441;SDS011;10380;52.102;20.614;2023-02-01T13:40:31;10.73;;;4.30;;
20441;SDS011;10380;52.102;20.614;2023-02-01T13:43:10;8.17;;;3.07;;
20441;SDS011;10380;52.102;20.614;2023-02-01T13:45:56;8.50;;;4.30;;
20441;SDS011;10380;52.102;20.614;2023-02-01T13:48:49;10.30;;;3.50;;
20441;SDS011;10380;52.102;20.614;2023-02-01T13:56:51;10.50;;;3.77;;
20441;SDS011;10380;52.102;20.614;2023-02-01T13:59:35;9.53;;;2.70;;
20441;SDS011;10380;52.102;20.614;2023-02-01T14:05:10;9.37;;;3.63;;
20441;SDS011;10380;52.102;20.614;2023-02-01T14:13:31;9.67;;;4.30;;
20441;SDS011;10380;52.102;20.614;2023-02-01T14:21:34;5.07;;;3.27;;
20441;SDS011;10380;52.102;20.614;2023-02-01T14:24:00;8.27;;;3.57;;
20441;SDS011;10380;52.102;20.614;2023-02-01T14:45:45;7.63;;;3.70;;
20441;SDS011;10380;52.102;20.614;2023-02-01T14:58:51;7.60;;;4.33;;
20441;SDS011;10380;52.102;20.614;2023-02-01T15:01:22;11.10;;;5.40;;
20441;SDS011;10380;52.102;20.614;2023-02-01T15:04:09;10.87;;;4.37;;
20441;SDS011;10380;52.102;20.614;2023-02-01T15:06:40;9.27;;;4.43;;
20441;SDS011;10380;52.102;20.614;2023-02-01T15:14:43;9.07;;;4.67;;
20441;SDS011;10380;52.102;20.614;2023-02-01T15:17:17;13.80;;;4.57;;
20441;SDS011;10380;52.102;20.614;2023-02-01T15:19:59;10.57;;;4.50;;
20441;SDS011;10380;52.102;20.614;2023-02-01T15:22:38;9.17;;;4.57;;
20441;SDS011;10380;52.102;20.614;2023-02-01T15:25:06;6.93;;;3.07;;
20441;SDS011;10380;52.102;20.614;2023-02-01T15:27:54;5.63;;;3.67;;
20441;SDS011;10380;52.102;20.614;2023-02-01T15:30:23;10.17;;;3.93;;
20441;SDS011;10380;52.102;20.614;2023-02-01T15:33:03;6.33;;;3.83;;
20441;SDS011;10380;52.102;20.614;2023-02-01T15:35:52;8.70;;;3.40;;
20441;SDS011;10380;52.102;20.614;2023-02-01T15:38:38;9.10;;;3.57;;
20441;SDS011;10380;52.102;20.614;2023-02-01T15:43:43;10.40;;;4.50;;
20441;SDS011;10380;52.102;20.614;2023-02-01T15:46:33;11.10;;;5.00;;
20441;SDS011;10380;52.102;20.614;2023-02-01T15:49:03;7.63;;;4.17;;
20441;SDS011;10380;52.102;20.614;2023-02-01T15:51:31;8.40;;;4.50;;
20441;SDS011;10380;52.102;20.614;2023-02-01T15:56:28;8.87;;;4.50;;
20441;SDS011;10380;52.102;20.614;2023-02-01T15:59:05;11.97;;;6.20;;
20441;SDS011;10380;52.102;20.614;2023-02-01T16:01:40;12.40;;;6.17;;
20441;SDS011;10380;52.102;20.614;2023-02-01T16:06:47;13.87;;;7.10;;
20441;SDS011;10380;52.102;20.614;2023-02-01T16:09:18;9.73;;;5.07;;
20441;SDS011;10380;52.102;20.614;2023-02-01T16:12:00;6.17;;;3.53;;
20441;SDS011;10380;52.102;20.614;2023-02-01T16:14:28;7.93;;;5.20;;
20441;SDS011;10380;52.102;20.614;2023-02-01T16:16:59;9.90;;;4.70;;
20441;SDS011;10380;52.102;20.614;2023-02-01T16:19:26;10.83;;;5.13;;
20441;SDS011;10380;52.102;20.614;2023-02-01T16:21:57;11.07;;;5.77;;
20441;SDS011;10380;52.102;20.614;2023-02-01T16:24:25;10.87;;;5.50;;
20441;SDS011;10380;52.102;20.614;2023-02-01T16:26:52;7.20;;;4.57;;
20441;SDS011;10380;52.102;20.614;2023-02-01T16:29:22;12.30;;;5.43;;
20441;SDS011;10380;52.102;20.614;2023-02-01T16:31:49;9.93;;;5.40;;
20441;SDS011;10380;52.102;20.614;2023-02-01T16:34:16;11.17;;;5.83;;
20441;SDS011;10380;52.102;20.614;2023-02-01T16:36:47;9.37;;;5.10;;
20441;SDS011;10380;52.102;20.614;2023-02-01T16:39:19;12.57;;;5.70;;
20441;SDS011;10380;52.102;20.614;2023-02-01T16:42:00;9.73;;;5.10;;
20441;SDS011;10380;52.102;20.614;2023-02-01T16:44:31;9.40;;;4.17;;
20441;SDS011;10380;52.102;20.614;2023-02-01T16:46:59;8.17;;;5.13;;
20441;SDS011;10380;52.102;20.614;2023-02-01T16:49:27;8.63;;;4.37;;
20441;SDS011;10380;52.102;20.614;2023-02-01T16:51:56;9.43;;;5.40;;
20441;SDS011;10380;52.102;20.614;2023-02-01T16:54:24;10.83;;;6.07;;
20441;SDS011;10380;52.102;20.614;2023-02-01T16:56:53;10.83;;;4.47;;
20441;SDS011;10380;52.102;20.614;2023-02-01T17:01:53;12.03;;;5.87;;
20441;SDS011;10380;52.102;20.614;2023-02-01T17:04:21;12.70;;;5.30;;
20441;SDS011;10380;52.102;20.614;2023-02-01T17:06:51;9.00;;;5.23;;
20441;SDS011;10380;52.102;20.614;2023-02-01T17:09:20;12.50;;;5.87;;
20441;SDS011;10380;52.102;20.614;2023-02-01T17:11:47;12.03;;;5.90;;
20441;SDS011;10380;52.102;20.614;2023-02-01T17:14:20;14.20;;;6.37;;
20441;SDS011;10380;52.102;20.614;2023-02-01T17:16:50;13.27;;;4.80;;
20441;SDS011;10380;52.102;20.614;2023-02-01T17:19:19;9.73;;;5.20;;
20441;SDS011;10380;52.102;20.614;2023-02-01T17:21:53;12.77;;;6.07;;
20441;SDS011;10380;52.102;20.614;2023-02-01T17:24:25;10.77;;;5.87;;
20441;SDS011;10380;52.102;20.614;2023-02-01T17:27:14;10.73;;;5.67;;
20441;SDS011;10380;52.102;20.614;2023-02-01T17:29:42;15.07;;;8.07;;
20441;SDS011;10380;52.102;20.614;2023-02-01T17:32:19;11.20;;;5.93;;
20441;SDS011;10380;52.102;20.614;2023-02-01T17:34:51;12.17;;;6.20;;
20441;SDS011;10380;52.102;20.614;2023-02-01T17:37:25;10.87;;;5.43;;
20441;SDS011;10380;52.102;20.614;2023-02-01T17:39:53;10.73;;;5.33;;
20441;SDS011;10380;52.102;20.614;2023-02-01T17:42:27;13.27;;;6.47;;
20441;SDS011;10380;52.102;20.614;2023-02-01T17:44:55;10.53;;;5.60;;
20441;SDS011;10380;52.102;20.614;2023-02-01T17:47:25;11.10;;;5.87;;
20441;SDS011;10380;52.102;20.614;2023-02-01T17:49:52;11.77;;;5.53;;
20441;SDS011;10380;52.102;20.614;2023-02-01T17:52:23;14.40;;;5.87;;
20441;SDS011;10380;52.102;20.614;2023-02-01T17:54:51;11.23;;;5.23;;
20441;SDS011;10380;52.102;20.614;2023-02-01T17:57:19;13.93;;;5.20;;
20441;SDS011;10380;52.102;20.614;2023-02-01T17:59:47;8.13;;;4.17;;
20441;SDS011;10380;52.102;20.614;2023-02-01T18:02:20;6.83;;;3.80;;
20441;SDS011;10380;52.102;20.614;2023-02-01T18:04:50;10.87;;;4.90;;
20441;SDS011;10380;52.102;20.614;2023-02-01T18:07:18;8.40;;;3.60;;
20441;SDS011;10380;52.102;20.614;2023-02-01T18:09:48;8.83;;;4.67;;
20441;SDS011;10380;52.102;20.614;2023-02-01T18:12:22;8.53;;;4.17;;
20441;SDS011;10380;52.102;20.614;2023-02-01T18:14:51;13.70;;;4.23;;
20441;SDS011;10380;52.102;20.614;2023-02-01T18:17:19;7.73;;;3.40;;
20441;SDS011;10380;52.102;20.614;2023-02-01T18:19:46;6.73;;;3.70;;
20441;SDS011;10380;52.102;20.614;2023-02-01T18:22:20;7.57;;;3.43;;
20441;SDS011;10380;52.102;20.614;2023-02-01T18:24:49;4.97;;;2.93;;
20441;SDS011;10380;52.102;20.614;2023-02-01T18:27:16;9.13;;;3.97;;
20441;SDS011;10380;52.102;20.614;2023-02-01T18:29:43;10.03;;;3.77;;
20441;SDS011;10380;52.102;20.614;2023-02-01T18:32:10;11.13;;;4.00;;
20441;SDS011;10380;52.102;20.614;2023-02-01T18:34:36;10.87;;;3.43;;
20441;SDS011;10380;52.102;20.614;2023-02-01T18:37:04;10.37;;;3.47;;
20441;SDS011;10380;52.102;20.614;2023-02-01T18:39:31;10.73;;;4.60;;
20441;SDS011;10380;52.102;20.614;2023-02-01T18:41:57;8.80;;;3.90;;
20441;SDS011;10380;52.102;20.614;2023-02-01T18:44:30;10.40;;;3.87;;